Impacts METAR Board
IDs:

KPDX - Portland Intl Arpt, OR, US

Updated at: 1100 UTC 17 Dec 2018
Potential Impact None Slight Moderate High
Time 16/23Z 17/00Z 17/01Z 17/02Z 17/03Z 17/04Z 17/05Z 17/06Z 17/07Z 17/08Z 17/09Z 17/10Z 17/11Z
Temp47 47 48 47 48 51 50 50 48 48 47 46 46
Dewpt44 46 44 44 44 46 45 45 45 45 44 44 44
Altim29.76 29.77 29.79 29.82 29.86 29.88 29.91 29.93 29.96 29.96 29.97 29.98 30.00
VIS10 10 10 10 10 10 10 10 10 10 10 10 10
CIG65 60 29 100 100 240 250 36 65 50 55 55 60
CoverOVCOVCOVCOVCOVCOVCBKNBKNBKNBKNBKNBKNOVC
FltCatVFRVFRMVFRVFRVFRVFRVFRVFRVFRVFRVFRVFRVFR
WX-RA-------------RA----------
WDir110110140110150190170160130140120110130
WSpd12 13 10 10 5 9 6 9 5 5 7 8 4
WGst-- -- -- -- -- -- -- -- -- -- -- -- --
Raw hourly METARs
KPDX 162253Z 11012KT 10SM -RA FEW025 BKN065 OVC080 08/07 A2976 RMK AO2 SLP076 P0010 T00830067
KPDX 162353Z 11013KT 10SM FEW030 BKN060 OVC090 08/08 A2977 RMK AO2 RAE53 SLP079 P0003 60028 T00830078 10100 20078 51035
KPDX 170053Z 14010KT 10SM BKN029 BKN040 OVC070 09/07 A2979 RMK AO2 SLP087 T00890067
KPDX 170153Z 11010KT 10SM FEW040 SCT075 BKN100 OVC240 08/07 A2982 RMK AO2 SLP097 T00830067
KPDX 170253Z 15005KT 10SM FEW040 SCT045 BKN100 OVC240 09/07 A2986 RMK AO2 RAB35E44 SLP109 P0000 60000 T00890067 53030
KPDX 170353Z 19009KT 10SM FEW060 FEW100 OVC240 11/08 A2988 RMK AO2 SLP118 T01060078
KPDX 170453Z 17006KT 10SM SCT080 BKN250 10/07 A2991 RMK AO2 SLP127 T01000072
KPDX 170553Z 16009KT 10SM -RA BKN036 BKN043 BKN080 10/07 A2993 RMK AO2 RAB43 SLP136 P0000 60000 T01000072 10111 20083 52026
KPDX 170653Z 13005KT 10SM FEW020 BKN065 09/07 A2996 RMK AO2 RAE53 SLP143 P0000 T00890072
KPDX 170753Z 14005KT 10SM FEW020 BKN050 BKN060 09/07 A2996 RMK AO2 SLP145 T00890072 401110072
KPDX 170853Z 12007KT 10SM FEW044 BKN055 BKN070 08/07 A2997 RMK AO2 RAB07E16 SLP147 P0000 60000 T00830067 51012
KPDX 170953Z 11008KT 10SM SCT040 BKN055 08/07 A2998 RMK AO2 SLP150 T00780067
KPDX 171053Z 13004KT 10SM SCT055 OVC060 08/07 A3000 RMK AO2 SLP157 T00780067



Page loaded:  11:38 UTC  |   03:38 AM Pacific  |   04:38 AM Mountain  |   05:38 AM Central  |   06:38 AM Eastern

 

ADVISORIES

FORECASTS

FORECASTS

OBSERVATIONS

USER TOOLS

ABOUT US